createdAt,value
2019-05-25T00:00:45.122Z,7.30
2019-05-25T00:03:16.146Z,7.97
2019-05-25T00:05:47.590Z,7.77
2019-05-25T00:08:18.843Z,7.60
2019-05-25T00:10:50.190Z,8.83
2019-05-25T00:13:21.232Z,8.07
2019-05-25T00:15:52.688Z,7.40
2019-05-25T00:18:23.773Z,8.10
2019-05-25T00:20:55.392Z,9.30
2019-05-25T00:23:26.502Z,8.97
2019-05-25T00:25:57.786Z,10.40
2019-05-25T00:28:29.012Z,9.00
2019-05-25T00:31:00.656Z,9.40
2019-05-25T00:33:31.986Z,8.90
2019-05-25T00:36:03.695Z,9.03
2019-05-25T00:38:35.400Z,9.97
2019-05-25T00:41:06.812Z,9.30
2019-05-25T00:43:38.104Z,9.80
2019-05-25T00:46:09.492Z,8.60
2019-05-25T00:48:40.704Z,8.83
2019-05-25T00:51:11.916Z,9.07
2019-05-25T00:53:43.012Z,9.40
2019-05-25T00:56:14.518Z,8.83
2019-05-25T00:58:45.956Z,8.57
2019-05-25T01:01:17.453Z,8.80
2019-05-25T01:03:48.490Z,9.67
2019-05-25T01:06:19.652Z,9.67
2019-05-25T01:08:50.707Z,9.13
2019-05-25T01:11:22.179Z,9.20
2019-05-25T01:13:53.371Z,9.20
2019-05-25T01:16:24.680Z,9.00
2019-05-25T01:18:55.918Z,8.90
2019-05-25T01:21:27.572Z,9.20
2019-05-25T01:23:58.730Z,8.60
2019-05-25T01:26:30.069Z,8.80
2019-05-25T01:29:01.149Z,8.47
2019-05-25T01:31:32.562Z,7.93
2019-05-25T01:34:03.581Z,8.90
2019-05-25T01:36:34.976Z,8.10
2019-05-25T01:39:07.411Z,8.23
2019-05-25T01:41:38.822Z,8.77
2019-05-25T01:44:10.990Z,8.10
2019-05-25T01:46:42.353Z,8.27
2019-05-25T01:49:13.441Z,8.80
2019-05-25T01:51:44.904Z,8.30
2019-05-25T01:54:15.938Z,8.00
2019-05-25T01:56:47.220Z,8.50
2019-05-25T01:59:18.272Z,9.07
2019-05-25T02:01:49.682Z,8.03
2019-05-25T02:04:21.140Z,8.70
2019-05-25T02:06:52.482Z,8.07
2019-05-25T02:09:24.602Z,8.47
2019-05-25T02:11:55.919Z,8.10
2019-05-25T02:14:26.997Z,7.97
2019-05-25T02:16:58.287Z,8.53
2019-05-25T02:19:29.408Z,8.90
2019-05-25T02:22:00.642Z,8.40
2019-05-25T02:24:31.749Z,8.13
2019-05-25T02:27:03.076Z,8.43
2019-05-25T02:29:34.171Z,8.30
2019-05-25T02:32:06.502Z,8.73
2019-05-25T02:34:37.700Z,8.10
2019-05-25T02:37:09.090Z,8.70
2019-05-25T02:39:40.376Z,7.83
2019-05-25T02:42:11.807Z,7.53
2019-05-25T02:44:43.220Z,8.80
2019-05-25T02:47:14.791Z,7.90
2019-05-25T02:49:46.194Z,8.40
2019-05-25T02:52:17.606Z,8.77
2019-05-25T02:54:48.744Z,8.23
2019-05-25T02:57:20.192Z,7.70
2019-05-25T02:59:51.276Z,7.80
2019-05-25T03:02:22.808Z,8.20
2019-05-25T03:04:54.106Z,8.83
2019-05-25T03:07:26.390Z,8.20
2019-05-25T03:09:59.768Z,9.13
2019-05-25T03:12:31.579Z,9.13
2019-05-25T03:15:49.228Z,8.43
2019-05-25T03:18:20.659Z,8.73
2019-05-25T03:20:51.826Z,8.23
2019-05-25T03:23:23.189Z,7.80
2019-05-25T03:26:06.576Z,8.63
2019-05-25T03:29:05.678Z,8.20
2019-05-25T03:31:37.011Z,7.67
2019-05-25T03:34:09.608Z,7.77
2019-05-25T03:36:52.914Z,8.07
2019-05-25T03:39:25.477Z,7.43
2019-05-25T03:41:56.593Z,8.23
2019-05-25T03:44:28.121Z,8.27
2019-05-25T03:46:59.378Z,7.80
2019-05-25T03:49:30.924Z,7.60
2019-05-25T03:52:02.015Z,8.30
2019-05-25T03:54:33.291Z,8.90
2019-05-25T03:57:04.823Z,8.93
2019-05-25T03:59:36.441Z,8.47
2019-05-25T04:02:07.629Z,7.90
2019-05-25T04:04:39.023Z,7.93
2019-05-25T04:07:10.168Z,8.47
2019-05-25T04:09:41.716Z,8.23
2019-05-25T04:12:12.780Z,8.20
2019-05-25T04:14:44.098Z,9.23
2019-05-25T04:17:15.445Z,8.70
2019-05-25T04:19:47.108Z,8.53
2019-05-25T04:22:18.233Z,7.67
2019-05-25T04:24:49.818Z,8.40
2019-05-25T04:27:21.135Z,8.87
2019-05-25T04:29:52.503Z,9.63
2019-05-25T04:32:23.583Z,9.73
2019-05-25T04:34:54.999Z,9.50
2019-05-25T04:37:26.135Z,10.13
2019-05-25T04:39:57.458Z,9.30
2019-05-25T04:42:28.636Z,8.33
2019-05-25T04:45:00.120Z,9.30
2019-05-25T04:47:31.159Z,9.70
2019-05-25T04:50:02.825Z,9.67
2019-05-25T04:52:34.031Z,8.97
2019-05-25T04:55:06.319Z,9.23
2019-05-25T04:57:37.542Z,8.87
2019-05-25T05:00:10.053Z,9.60
2019-05-25T05:02:53.175Z,9.37
2019-05-25T05:05:24.621Z,12.77
2019-05-25T05:07:55.707Z,9.27
2019-05-25T05:10:27.014Z,10.07
2019-05-25T05:12:58.079Z,9.47
2019-05-25T05:15:29.333Z,8.07
2019-05-25T05:18:00.563Z,8.70
2019-05-25T05:20:31.907Z,8.50
2019-05-25T05:23:02.983Z,9.00
2019-05-25T05:25:34.399Z,9.30
2019-05-25T05:28:05.580Z,9.10
2019-05-25T05:30:36.885Z,9.47
2019-05-25T05:33:08.051Z,10.10
2019-05-25T05:35:39.515Z,10.17
2019-05-25T05:38:11.566Z,9.97
2019-05-25T05:40:43.466Z,10.30
2019-05-25T05:43:16.422Z,10.27
2019-05-25T05:45:49.391Z,10.07
2019-05-25T05:48:23.581Z,10.97
2019-05-25T05:50:57.217Z,11.27
2019-05-25T05:53:28.384Z,10.20
2019-05-25T05:55:59.708Z,11.77
2019-05-25T05:58:30.745Z,11.10
2019-05-25T06:01:02.095Z,11.00
2019-05-25T06:03:33.236Z,10.90
2019-05-25T06:06:04.427Z,11.50
2019-05-25T06:08:35.689Z,10.53
2019-05-25T06:11:07.091Z,11.70
2019-05-25T06:13:38.134Z,10.87
2019-05-25T06:16:09.419Z,11.47
2019-05-25T06:18:40.545Z,11.37
2019-05-25T06:21:30.973Z,11.30
2019-05-25T06:24:02.206Z,10.77
2019-05-25T06:26:33.561Z,11.50
2019-05-25T15:31:04.849Z,6.53
2019-05-25T15:33:35.960Z,6.33
2019-05-25T15:36:07.210Z,6.50
2019-05-25T15:38:39.271Z,6.03
2019-05-25T15:41:10.608Z,6.50
2019-05-25T15:43:41.734Z,6.83
2019-05-25T15:46:12.920Z,5.97
2019-05-25T15:48:43.989Z,6.37
2019-05-25T15:51:16.710Z,5.60
2019-05-25T15:53:47.820Z,5.90
2019-05-25T15:56:19.025Z,5.80
2019-05-25T15:58:50.142Z,5.80
2019-05-25T16:01:21.518Z,5.60
2019-05-25T16:03:52.676Z,5.40
2019-05-25T16:06:24.908Z,5.33
2019-05-25T16:08:56.105Z,5.13
2019-05-25T16:11:27.215Z,5.30
2019-05-25T16:13:58.421Z,5.30
2019-05-25T16:16:30.328Z,5.60
2019-05-25T16:19:01.737Z,4.93
2019-05-25T16:21:33.018Z,5.33
2019-05-25T16:24:07.802Z,4.93
2019-05-25T16:26:45.414Z,4.90
2019-05-25T16:29:10.039Z,5.47
2019-05-25T16:31:41.383Z,6.20
2019-05-25T16:34:12.463Z,7.13
2019-05-25T16:36:43.774Z,7.10
2019-05-25T16:39:14.949Z,7.77
2019-05-25T16:41:46.291Z,8.70
2019-05-25T16:44:17.385Z,8.50
2019-05-25T16:46:48.770Z,8.20
2019-05-25T16:49:19.852Z,7.87
2019-05-25T16:51:51.061Z,8.80
2019-05-25T16:54:22.160Z,8.47
2019-05-25T16:56:53.456Z,9.23
2019-05-25T16:59:24.542Z,8.50
2019-05-25T17:02:14.900Z,8.77
2019-05-25T17:04:46.046Z,9.40
2019-05-25T17:07:17.203Z,9.30
2019-05-25T17:09:48.371Z,9.90
2019-05-25T17:12:19.587Z,10.30
2019-05-25T17:14:50.671Z,11.03
2019-05-25T17:17:21.926Z,9.70
2019-05-25T17:19:53.051Z,9.30
2019-05-25T17:22:24.180Z,10.70
2019-05-25T17:24:59.074Z,10.37
2019-05-25T17:27:28.387Z,10.10
2019-05-25T17:29:59.668Z,10.60
2019-05-25T17:32:30.995Z,11.10
2019-05-25T17:35:02.182Z,10.80
2019-05-25T17:37:33.404Z,10.33
2019-05-25T17:40:05.101Z,11.30
2019-05-25T17:42:36.897Z,11.10
2019-05-25T17:45:08.719Z,12.37
2019-05-25T17:47:40.098Z,12.00
2019-05-25T17:50:11.397Z,10.60
2019-05-25T17:52:42.804Z,10.77
2019-05-25T17:55:14.042Z,10.27
2019-05-25T17:57:45.703Z,8.53
2019-05-25T18:00:25.773Z,9.70
2019-05-25T18:02:57.214Z,9.03
2019-05-25T18:05:28.647Z,10.80
2019-05-25T18:08:11.508Z,9.80
2019-05-25T18:10:52.785Z,9.77
2019-05-25T18:13:16.928Z,10.27
2019-05-25T18:15:49.512Z,9.10
2019-05-25T18:18:21.047Z,8.80
2019-05-25T18:20:53.227Z,8.77
2019-05-25T18:23:25.629Z,7.93
2019-05-25T18:25:56.759Z,8.50
2019-05-25T18:28:28.458Z,7.93
2019-05-25T18:30:59.645Z,8.00
2019-05-25T18:33:31.119Z,8.07
2019-05-25T18:36:02.243Z,6.70
2019-05-25T18:38:33.515Z,7.07
2019-05-25T18:41:04.603Z,7.50
2019-05-25T18:43:36.861Z,6.10
2019-05-25T18:46:07.902Z,6.50
2019-05-25T18:48:50.932Z,7.30
2019-05-25T18:51:22.106Z,7.90
2019-05-25T18:53:53.416Z,8.37
2019-05-25T18:56:24.554Z,8.10
2019-05-25T18:58:55.880Z,8.60
2019-05-25T19:01:27.022Z,8.40
2019-05-25T19:03:58.239Z,9.10
2019-05-25T19:06:29.335Z,9.20
2019-05-25T19:09:00.673Z,7.90
2019-05-25T19:11:35.668Z,7.60
2019-05-25T19:14:04.785Z,7.67
2019-05-25T19:16:35.958Z,7.70
2019-05-25T19:19:07.238Z,7.90
2019-05-25T19:21:38.386Z,7.20
2019-05-25T19:24:09.686Z,6.70
2019-05-25T19:26:40.766Z,6.83
2019-05-25T19:29:11.996Z,6.77
2019-05-25T19:31:43.078Z,6.50
2019-05-25T19:34:14.310Z,7.00
2019-05-25T19:36:45.394Z,6.30
2019-05-25T19:39:16.768Z,5.10
2019-05-25T19:41:47.870Z,5.57
2019-05-25T19:44:19.107Z,5.10
2019-05-25T19:47:02.739Z,5.67
2019-05-25T19:49:34.061Z,5.30
2019-05-25T19:52:05.360Z,5.10
2019-05-25T19:54:36.828Z,4.97
2019-05-25T19:57:19.939Z,5.03
2019-05-25T19:59:51.314Z,4.87
2019-05-25T20:02:22.393Z,4.27
2019-05-25T20:04:53.668Z,5.20
2019-05-25T20:07:25.750Z,5.00
2019-05-25T20:09:57.134Z,5.40
2019-05-25T20:12:28.425Z,5.30
2019-05-25T20:14:59.841Z,5.50
2019-05-25T20:17:49.954Z,5.97
2019-05-25T20:20:21.359Z,5.70
2019-05-25T20:22:53.244Z,5.40
2019-05-25T20:25:24.416Z,5.10
2019-05-25T20:27:55.518Z,5.30
2019-05-25T20:30:26.858Z,5.80
2019-05-25T20:32:57.978Z,5.70
2019-05-25T20:35:33.181Z,5.80
2019-05-25T20:38:02.171Z,6.50
2019-05-25T20:40:33.490Z,6.47
2019-05-25T20:43:04.559Z,6.00
2019-05-25T20:45:35.728Z,6.47
2019-05-25T20:48:19.253Z,6.63
2019-05-25T20:50:50.476Z,7.40
2019-05-25T20:53:21.613Z,7.10
2019-05-25T20:55:52.878Z,6.90
2019-05-25T20:58:24.035Z,7.13
2019-05-25T21:00:56.363Z,6.80
2019-05-25T21:03:27.526Z,6.57
2019-05-25T21:05:58.854Z,6.80
2019-05-25T21:08:29.915Z,7.53
2019-05-25T21:11:02.247Z,7.30
2019-05-25T21:13:33.356Z,7.73
2019-05-25T21:16:05.164Z,7.60
2019-05-25T21:18:36.282Z,8.30
2019-05-25T21:21:07.574Z,8.73
2019-05-25T21:23:38.723Z,9.10
2019-05-25T21:26:10.171Z,9.87
2019-05-25T21:28:41.638Z,9.30
2019-05-25T21:31:13.212Z,9.67
2019-05-25T21:33:44.412Z,10.10
2019-05-25T21:36:15.689Z,9.90
2019-05-25T21:38:46.788Z,10.80
2019-05-25T21:41:18.079Z,10.67
2019-05-25T21:43:49.171Z,11.70
2019-05-25T21:46:20.422Z,11.30
2019-05-25T21:48:51.511Z,10.10
2019-05-25T21:51:22.857Z,10.87
2019-05-25T21:54:13.051Z,11.00
2019-05-25T21:56:44.406Z,10.50
2019-05-25T21:59:15.654Z,10.77
2019-05-25T22:01:46.876Z,12.03
2019-05-25T22:04:18.037Z,11.20
2019-05-25T22:06:49.394Z,11.83
2019-05-25T22:09:20.445Z,11.70
2019-05-25T22:11:51.602Z,11.73
2019-05-25T22:14:22.698Z,11.53
2019-05-25T22:16:55.113Z,10.53
2019-05-25T22:19:26.162Z,11.23
2019-05-25T22:21:57.880Z,11.03
2019-05-25T22:24:29.250Z,10.60
2019-05-25T22:27:00.686Z,10.27
2019-05-25T22:29:31.834Z,10.80
2019-05-25T22:32:03.179Z,11.50
2019-05-25T22:34:34.266Z,13.80
2019-05-25T22:37:05.904Z,13.67
2019-05-25T22:39:36.966Z,11.73
2019-05-25T22:42:08.220Z,12.40
2019-05-25T22:44:39.335Z,11.67
2019-05-25T22:47:10.766Z,12.10
2019-05-25T22:49:41.915Z,13.10
2019-05-25T22:52:13.377Z,12.57
2019-05-25T22:54:44.450Z,12.80
2019-05-25T22:57:16.799Z,12.07
2019-05-25T22:59:48.152Z,12.73
2019-05-25T23:02:31.052Z,13.80
2019-05-25T23:05:02.338Z,15.40
2019-05-25T23:07:34.877Z,16.17
2019-05-25T23:10:07.126Z,16.53
2019-05-25T23:12:38.395Z,17.17
2019-05-25T23:15:10.242Z,16.40
2019-05-25T23:17:42.032Z,15.37
2019-05-25T23:20:13.243Z,16.77
2019-05-25T23:22:50.452Z,17.93
2019-05-25T23:25:22.360Z,15.57
2019-05-25T23:27:53.710Z,16.43
2019-05-25T23:30:24.771Z,15.80
2019-05-25T23:32:55.978Z,14.13
2019-05-25T23:35:27.134Z,15.93
2019-05-25T23:37:58.449Z,16.30
2019-05-25T23:40:29.526Z,16.97
2019-05-25T23:43:00.939Z,16.90
2019-05-25T23:45:32.064Z,19.63
2019-05-25T23:48:03.434Z,20.03
2019-05-25T23:50:34.504Z,20.63
2019-05-25T23:53:05.934Z,19.40
2019-05-25T23:55:37.362Z,22.00
2019-05-25T23:58:08.732Z,17.97
